createdAt,value
2023-04-18T00:03:01.631Z,9.47
2023-04-18T00:06:05.812Z,9.03
2023-04-18T00:09:07.217Z,8.99
2023-04-18T00:12:08.741Z,9.24
2023-04-18T00:15:11.539Z,9.28
2023-04-18T00:18:17.209Z,9.30
2023-04-18T00:21:18.732Z,9.32
2023-04-18T00:24:20.165Z,9.34
2023-04-18T00:27:21.876Z,9.45
2023-04-18T00:30:23.306Z,9.27
2023-04-18T00:33:24.961Z,9.48
2023-04-18T00:36:27.782Z,9.43
2023-04-18T00:39:29.241Z,9.27
2023-04-18T00:42:30.934Z,9.28
2023-04-18T00:45:32.475Z,9.37
2023-04-18T00:48:34.028Z,9.34
2023-04-18T00:51:35.854Z,9.29
2023-04-18T00:54:38.356Z,9.03
2023-04-18T00:57:40.460Z,8.61
2023-04-18T01:00:42.891Z,8.50
2023-04-18T01:03:47.238Z,8.79
2023-04-18T01:06:50.046Z,8.76
2023-04-18T01:09:53.190Z,8.79
2023-04-18T01:13:16.137Z,9.03
2023-04-18T01:16:17.747Z,9.10
2023-04-18T01:19:19.347Z,8.62
2023-04-18T01:22:20.829Z,8.43
2023-04-18T01:25:22.342Z,8.68
2023-04-18T01:28:23.836Z,8.76
2023-04-18T01:31:25.306Z,8.78
2023-04-18T01:34:26.763Z,8.66
2023-04-18T01:37:28.254Z,8.65
2023-04-18T01:40:32.651Z,8.60
2023-04-18T01:43:34.672Z,8.55
2023-04-18T01:46:38.808Z,8.66
2023-04-18T01:49:42.798Z,8.40
2023-04-18T01:52:44.247Z,8.34
2023-04-18T01:55:45.704Z,8.40
2023-04-18T01:58:47.110Z,8.52
2023-04-18T02:01:48.548Z,8.54
2023-04-18T02:04:50.028Z,8.42
2023-04-18T02:07:51.438Z,8.44
2023-04-18T02:10:52.870Z,8.32
2023-04-18T02:13:55.546Z,8.37
2023-04-18T02:16:57.389Z,8.22
2023-04-18T02:19:58.882Z,8.28
2023-04-18T02:23:00.751Z,8.08
2023-04-18T02:26:04.403Z,8.08
2023-04-18T02:29:05.814Z,8.12
2023-04-18T02:32:07.461Z,8.07
2023-04-18T02:35:11.318Z,8.07
2023-04-18T02:38:13.789Z,7.98
2023-04-18T02:41:19.270Z,8.09
2023-04-18T02:44:21.705Z,7.99
2023-04-18T02:47:23.576Z,7.87
2023-04-18T02:50:25.263Z,7.99
2023-04-18T02:53:28.822Z,7.97
2023-04-18T02:56:30.612Z,7.61
2023-04-18T02:59:53.097Z,7.67
2023-04-18T03:03:13.116Z,7.70
2023-04-18T03:06:24.463Z,7.57
2023-04-18T03:09:27.672Z,7.60
2023-04-18T03:12:33.920Z,7.50
2023-04-18T03:15:37.500Z,7.15
2023-04-18T03:18:39.772Z,7.17
2023-04-18T03:21:41.471Z,7.13
2023-04-18T03:24:46.706Z,7.32
2023-04-18T03:27:49.415Z,7.57
2023-04-18T03:30:52.584Z,7.59
2023-04-18T03:33:54.066Z,7.66
2023-04-18T03:36:56.348Z,7.56
2023-04-18T03:39:58.269Z,7.57
2023-04-18T03:43:02.553Z,7.56
2023-04-18T03:46:04.275Z,7.64
2023-04-18T03:49:06.342Z,7.58
2023-04-18T03:52:07.811Z,7.61
2023-04-18T03:55:09.433Z,7.36
2023-04-18T03:58:10.871Z,7.52
2023-04-18T04:01:13.754Z,7.59
2023-04-18T04:04:15.389Z,7.64
2023-04-18T04:07:17.779Z,7.63
2023-04-18T04:10:19.322Z,7.47
2023-04-18T04:13:22.369Z,7.43
2023-04-18T04:16:24.712Z,7.55
2023-04-18T04:19:28.914Z,7.53
2023-04-18T04:22:41.435Z,7.61
2023-04-18T04:25:46.234Z,7.65
2023-04-18T04:29:03.390Z,7.58
2023-04-18T04:32:06.875Z,7.62
2023-04-18T04:35:12.586Z,7.37
2023-04-18T04:38:15.309Z,7.51
2023-04-18T04:41:22.722Z,7.50
2023-04-18T04:44:26.102Z,7.48
2023-04-18T04:47:28.954Z,7.55
2023-04-18T04:50:30.416Z,7.65
2023-04-18T04:53:31.904Z,7.60
2023-04-18T04:56:36.472Z,7.61
2023-04-18T04:59:38.347Z,7.67
2023-04-18T05:02:40.600Z,7.52
2023-04-18T05:05:42.410Z,7.64
2023-04-18T05:08:43.923Z,7.65
2023-04-18T05:11:45.384Z,7.67
2023-04-18T05:14:46.904Z,7.61
2023-04-18T05:17:48.436Z,7.62
2023-04-18T05:20:50.013Z,7.71
2023-04-18T05:23:51.562Z,7.79
2023-04-18T05:26:53.189Z,7.81
2023-04-18T05:29:54.814Z,7.83
2023-04-18T05:32:56.469Z,7.67
2023-04-18T05:35:58.750Z,7.82
2023-04-18T05:39:00.208Z,7.87
2023-04-18T05:42:02.243Z,7.66
2023-04-18T05:45:03.927Z,8.06
2023-04-18T05:48:05.554Z,8.04
2023-04-18T05:51:07.026Z,8.03
2023-04-18T05:54:08.466Z,8.10
2023-04-18T05:57:09.898Z,8.03
2023-04-18T06:00:12.139Z,7.96
2023-04-18T06:03:16.785Z,7.89
2023-04-18T06:06:18.421Z,8.06
2023-04-18T06:09:19.903Z,8.03
2023-04-18T06:12:21.372Z,7.97
2023-04-18T06:15:22.778Z,8.03
2023-04-18T06:18:24.256Z,8.25
2023-04-18T06:21:26.825Z,8.38
2023-04-18T06:24:30.181Z,8.16
2023-04-18T06:27:32.716Z,8.23
2023-04-18T06:30:34.295Z,8.28
2023-04-18T06:33:37.620Z,8.35
2023-04-18T06:36:39.451Z,8.30
2023-04-18T06:39:40.867Z,8.32
2023-04-18T06:42:43.160Z,8.30
2023-04-18T06:45:44.620Z,8.49
2023-04-18T06:48:46.070Z,8.48
2023-04-18T06:51:47.512Z,8.40
2023-04-18T06:54:48.927Z,8.51
2023-04-18T06:57:50.310Z,8.49
2023-04-18T07:00:52.033Z,8.45
2023-04-18T07:03:53.841Z,8.45
2023-04-18T07:06:55.445Z,8.50
2023-04-18T07:09:57.001Z,8.56
2023-04-18T07:12:58.475Z,8.52
2023-04-18T07:16:00.575Z,8.51
2023-04-18T07:19:02.006Z,8.75
2023-04-18T07:22:03.478Z,8.74
2023-04-18T07:25:05.285Z,8.74
2023-04-18T07:28:06.718Z,8.70
2023-04-18T07:31:11.292Z,8.14
2023-04-18T07:34:14.030Z,8.34
2023-04-18T07:37:17.483Z,8.49
2023-04-18T07:40:19.079Z,8.33
2023-04-18T07:43:20.955Z,8.53
2023-04-18T07:46:22.558Z,8.45
2023-04-18T07:49:24.147Z,8.35
2023-04-18T07:52:25.756Z,8.56
2023-04-18T07:55:27.240Z,8.33
2023-04-18T07:58:29.200Z,8.12
2023-04-18T08:01:30.929Z,8.24
2023-04-18T08:04:33.227Z,8.54
2023-04-18T08:07:34.640Z,8.57
2023-04-18T08:10:36.514Z,8.39
2023-04-18T08:13:38.022Z,8.44
2023-04-18T08:16:39.966Z,8.45
2023-04-18T08:19:41.450Z,8.51
2023-04-18T08:22:57.714Z,8.50
2023-04-18T08:26:04.841Z,8.59
2023-04-18T08:29:06.326Z,8.70
2023-04-18T08:32:08.087Z,8.66
2023-04-18T08:35:09.546Z,8.70
2023-04-18T08:38:10.961Z,8.57
2023-04-18T08:41:12.615Z,8.79
2023-04-18T08:44:14.323Z,8.64
2023-04-18T08:47:16.349Z,8.82
2023-04-18T08:50:18.393Z,8.97
2023-04-18T08:53:19.820Z,8.48
2023-04-18T08:56:25.926Z,8.61
2023-04-18T08:59:27.428Z,8.74
2023-04-18T09:02:42.601Z,8.83
2023-04-18T09:06:13.549Z,8.73
2023-04-18T09:09:15.225Z,8.84
2023-04-18T09:12:22.351Z,8.92
2023-04-18T09:15:27.131Z,8.87
2023-04-18T09:18:28.615Z,9.11
2023-04-18T09:21:30.372Z,9.39
2023-04-18T09:24:32.556Z,9.52
2023-04-18T09:27:34.905Z,9.77
2023-04-18T09:30:40.624Z,10.16
2023-04-18T09:33:54.047Z,10.31
2023-04-18T09:37:21.941Z,10.67
2023-04-18T09:40:24.033Z,10.23
2023-04-18T09:43:25.515Z,10.25
2023-04-18T09:46:27.549Z,9.91
2023-04-18T09:49:29.301Z,10.08
2023-04-18T09:52:38.528Z,10.24
2023-04-18T09:55:41.430Z,10.26
2023-04-18T09:58:47.055Z,10.42
2023-04-18T10:01:49.647Z,10.41
2023-04-18T10:04:53.994Z,10.46
2023-04-18T10:07:56.088Z,10.88
2023-04-18T10:10:58.656Z,11.13
2023-04-18T10:14:07.878Z,10.83
2023-04-18T10:17:10.225Z,10.50
2023-04-18T10:20:20.186Z,10.73
2023-04-18T10:23:30.808Z,10.79
2023-04-18T10:26:46.999Z,11.03
2023-04-18T10:29:52.941Z,10.86
2023-04-18T10:32:55.467Z,10.99
2023-04-18T10:35:58.832Z,11.40
2023-04-18T10:39:03.950Z,11.28
2023-04-18T10:42:05.455Z,11.32
2023-04-18T10:45:18.374Z,11.21
2023-04-18T10:48:30.315Z,11.32
2023-04-18T10:51:32.071Z,11.49
2023-04-18T10:54:38.741Z,11.43
2023-04-18T10:57:45.399Z,11.26
2023-04-18T11:00:49.598Z,11.37
2023-04-18T11:03:52.184Z,11.53
2023-04-18T11:06:58.309Z,11.73
2023-04-18T11:10:00.337Z,11.65
2023-04-18T11:13:06.434Z,11.82
2023-04-18T11:16:08.161Z,11.40
2023-04-18T11:19:23.555Z,11.69
2023-04-18T11:22:25.183Z,11.68
2023-04-18T11:25:28.461Z,11.71
2023-04-18T11:28:29.974Z,11.75
2023-04-18T11:31:31.468Z,11.63
2023-04-18T11:34:33.083Z,11.50
2023-04-18T11:37:37.516Z,11.40
2023-04-18T11:40:39.161Z,11.42
2023-04-18T11:43:45.693Z,11.56
2023-04-18T11:46:47.623Z,11.72
2023-04-18T11:50:01.809Z,11.89
2023-04-18T11:53:03.228Z,11.80
2023-04-18T11:56:05.467Z,12.01
2023-04-18T11:59:09.986Z,11.90
2023-04-18T12:05:30.425Z,12.86
2023-04-18T12:08:32.763Z,12.62
2023-04-18T12:11:34.562Z,12.62
2023-04-18T12:14:36.131Z,12.80
2023-04-18T12:17:38.204Z,12.58
2023-04-18T12:20:49.859Z,12.67
2023-04-18T12:23:51.722Z,12.74
2023-04-18T12:26:53.205Z,12.74
2023-04-18T12:29:54.677Z,12.91
2023-04-18T12:32:58.384Z,12.99
2023-04-18T12:35:59.957Z,13.08
2023-04-18T12:39:01.741Z,13.12
2023-04-18T12:42:03.689Z,13.03
2023-04-18T12:45:07.640Z,12.88
2023-04-18T12:48:09.149Z,13.06
2023-04-18T12:51:10.551Z,12.86
2023-04-18T12:54:12.235Z,12.98
2023-04-18T12:57:13.962Z,13.07
2023-04-18T13:00:15.496Z,12.94
2023-04-18T13:03:17.331Z,12.82
2023-04-18T13:06:19.071Z,13.22
2023-04-18T13:09:20.563Z,13.18
2023-04-18T13:12:22.046Z,13.37
2023-04-18T13:15:23.884Z,13.27
2023-04-18T13:18:25.532Z,13.59
2023-04-18T13:21:27.501Z,13.41
2023-04-18T13:24:28.926Z,13.79
